Time;durP1;ratioP1;P1;durP2;ratioP2;P2;SDS_P1;SDS_P2;PMS_P1;PMS_P2;Temp;Humidity;BMP_temperature;BMP_pressure;BME280_temperature;BME280_humidity;BME280_pressure;Samples;Min_cycle;Max_cycle;Signal;HPM_P1;HPM_P2
2023/07/20 00:00:00;;;;;;;;;;;14.30;97.60;;;;;;5114555;28;19926;-79
2023/07/20 00:02:26;;;;;;;;;;;14.30;97.70;;;;;;5112421;28;20314;-79
2023/07/20 00:04:51;;;;;;;;;;;14.30;97.90;;;;;;5112240;28;19911;-79
2023/07/20 00:07:17;;;;;;;;;;;14.30;97.70;;;;;;5099262;28;20003;-78
2023/07/20 00:09:43;;;;;;;;;;;14.30;97.80;;;;;;5094343;28;19953;-78
2023/07/20 00:12:08;;;;;;;;;;;14.20;97.70;;;;;;5092494;28;19916;-80
2023/07/20 00:14:34;;;;;;;;;;;14.30;97.80;;;;;;5091789;28;19941;-79
2023/07/20 00:17:00;;;;;;;;;;;14.20;97.80;;;;;;5101018;28;19908;-77
2023/07/20 00:19:26;;;;;;;;;;;14.30;97.80;;;;;;5102622;28;19909;-79
2023/07/20 00:21:52;;;;;;;;;;;14.20;97.90;;;;;;5111040;28;19912;-77
2023/07/20 00:24:18;;;;;;;;;;;14.20;97.90;;;;;;5104370;28;19930;-78
2023/07/20 00:26:44;;;;;;;;;;;14.20;98.00;;;;;;5090598;28;20375;-77
2023/07/20 00:29:10;;;;;;;;;;;14.20;98.00;;;;;;5104095;28;19931;-78
2023/07/20 00:31:36;;;;;;;;;;;14.20;98.10;;;;;;5078249;28;19908;-77
2023/07/20 00:34:03;;;;;;;;;;;14.10;98.10;;;;;;5098574;28;19919;-78
2023/07/20 00:36:29;;;;;;;;;;;14.10;98.30;;;;;;5101456;28;20003;-78
2023/07/20 00:38:54;;;;;;;;;;;14.10;98.30;;;;;;5106212;28;19954;-78
2023/07/20 00:41:20;;;;;;;;;;;14.10;98.40;;;;;;5077640;28;20268;-79
2023/07/20 00:43:46;;;;;;;;;;;14.10;98.50;;;;;;5104111;28;19907;-78
2023/07/20 00:46:12;;;;;;;;;;;14.00;98.40;;;;;;5099141;28;19912;-81
2023/07/20 00:48:37;;;;;;;;;;;14.00;98.50;;;;;;5098823;28;19912;-78
2023/07/20 00:51:03;;;;;;;;;;;14.00;98.50;;;;;;5097720;28;19930;-78
2023/07/20 00:53:30;;;;;;;;;;;14.00;98.60;;;;;;5107703;28;19996;-79
2023/07/20 00:55:55;;;;;;;;;;;14.00;98.60;;;;;;5075343;28;19917;-80
2023/07/20 00:58:21;;;;;;;;;;;14.00;98.60;;;;;;5094737;28;19915;-78
2023/07/20 01:00:47;;;;;;;;;;;14.00;98.60;;;;;;5102259;28;20307;-77
2023/07/20 01:03:13;;;;;;;;;;;14.00;98.70;;;;;;5116355;28;19939;-78
2023/07/20 01:05:46;;;;;;;;;;;13.90;98.70;;;;;;5112495;28;19996;-78
2023/07/20 01:08:15;;;;;;;;;;;13.90;98.70;;;;;;5096097;28;19981;-79
2023/07/20 01:10:49;;;;;;;;;;;13.90;98.80;;;;;;5073736;28;19928;-78
2023/07/20 01:13:15;;;;;;;;;;;13.90;98.80;;;;;;5063208;28;19908;-77
2023/07/20 01:15:41;;;;;;;;;;;13.90;98.90;;;;;;5112781;28;20384;-78
2023/07/20 01:18:06;;;;;;;;;;;13.80;99.00;;;;;;5085496;28;19991;-78
2023/07/20 01:20:33;;;;;;;;;;;13.80;99.10;;;;;;5112817;28;19912;-79
2023/07/20 01:23:14;;;;;;;;;;;13.80;99.10;;;;;;5111841;28;20667;-79
2023/07/20 01:25:39;;;;;;;;;;;13.80;99.10;;;;;;5073062;28;20366;-78
2023/07/20 01:28:17;;;;;;;;;;;13.80;99.20;;;;;;5106899;28;19936;-79
2023/07/20 01:30:43;;;;;;;;;;;13.80;99.20;;;;;;5113056;28;19908;-80
2023/07/20 01:33:09;;;;;;;;;;;13.80;99.20;;;;;;5103541;28;20284;-79
2023/07/20 01:35:35;;;;;;;;;;;13.80;99.30;;;;;;5111993;28;20010;-79
2023/07/20 01:38:01;;;;;;;;;;;13.80;99.30;;;;;;5094778;28;19908;-79
2023/07/20 01:40:27;;;;;;;;;;;13.80;99.30;;;;;;5101441;28;20015;-77
2023/07/20 01:42:53;;;;;;;;;;;13.80;99.30;;;;;;5055266;28;19908;-79
2023/07/20 01:45:19;;;;;;;;;;;13.80;99.30;;;;;;5077096;28;19928;-77
2023/07/20 01:47:45;;;;;;;;;;;13.80;99.40;;;;;;5099572;28;19908;-79
2023/07/20 01:50:11;;;;;;;;;;;13.90;99.40;;;;;;5109447;28;19978;-78
2023/07/20 01:52:37;;;;;;;;;;;13.90;99.50;;;;;;5111744;28;19915;-78
2023/07/20 01:55:04;;;;;;;;;;;13.90;99.60;;;;;;5109307;28;19926;-79
2023/07/20 01:57:30;;;;;;;;;;;13.90;99.50;;;;;;5087822;28;19912;-77
2023/07/20 01:59:55;;;;;;;;;;;13.90;99.50;;;;;;5107635;28;19914;-78
2023/07/20 02:02:22;;;;;;;;;;;13.90;99.60;;;;;;5107845;28;19908;-79
2023/07/20 02:04:48;;;;;;;;;;;13.90;99.70;;;;;;5108893;28;19953;-79
2023/07/20 02:07:14;;;;;;;;;;;14.00;99.70;;;;;;5101383;28;19908;-79
2023/07/20 02:09:40;;;;;;;;;;;14.00;99.60;;;;;;5103456;28;19915;-79
2023/07/20 02:12:05;;;;;;;;;;;14.00;99.60;;;;;;5094622;28;19908;-77
2023/07/20 02:14:31;;;;;;;;;;;14.00;99.50;;;;;;5089148;28;19972;-78
2023/07/20 02:16:59;;;;;;;;;;;14.00;99.50;;;;;;5084520;28;19956;-78
2023/07/20 02:19:26;;;;;;;;;;;14.10;99.50;;;;;;5089446;28;19951;-78
2023/07/20 02:21:52;;;;;;;;;;;14.10;99.50;;;;;;5112237;28;20337;-79
2023/07/20 02:24:17;;;;;;;;;;;14.10;99.50;;;;;;5109706;28;20013;-80
2023/07/20 02:26:43;;;;;;;;;;;14.10;99.50;;;;;;5110770;28;20487;-79
2023/07/20 02:29:11;;;;;;;;;;;14.20;99.40;;;;;;5108459;28;19957;-79
2023/07/20 02:31:39;;;;;;;;;;;14.20;99.40;;;;;;5087263;28;19915;-78
2023/07/20 02:34:05;;;;;;;;;;;14.20;99.40;;;;;;5084516;28;20007;-79
2023/07/20 02:36:32;;;;;;;;;;;14.20;99.40;;;;;;5086360;28;19908;-79
2023/07/20 02:38:58;;;;;;;;;;;14.30;99.40;;;;;;5109945;28;19907;-79
2023/07/20 02:41:24;;;;;;;;;;;14.30;99.30;;;;;;5065349;28;19913;-78
2023/07/20 02:43:50;;;;;;;;;;;14.30;99.30;;;;;;5095258;28;19931;-78
2023/07/20 02:46:15;;;;;;;;;;;14.40;99.30;;;;;;5087471;28;19908;-78
2023/07/20 02:48:41;;;;;;;;;;;14.40;99.20;;;;;;5108869;28;20476;-79
2023/07/20 02:51:07;;;;;;;;;;;14.50;99.10;;;;;;5100755;28;20427;-80
2023/07/20 02:53:33;;;;;;;;;;;14.50;99.10;;;;;;5104699;28;19931;-80
2023/07/20 02:55:59;;;;;;;;;;;14.60;99.10;;;;;;5086418;28;19926;-79
2023/07/20 02:58:24;;;;;;;;;;;14.70;99.10;;;;;;5104524;28;19908;-79
2023/07/20 03:00:50;;;;;;;;;;;14.90;99.30;;;;;;5109478;28;19907;-78
2023/07/20 03:03:16;;;;;;;;;;;15.10;99.00;;;;;;5105331;28;19908;-79
2023/07/20 03:05:42;;;;;;;;;;;15.20;98.40;;;;;;5107804;28;19908;-79
2023/07/20 03:08:08;;;;;;;;;;;15.20;98.10;;;;;;5100861;28;19981;-78
2023/07/20 03:10:38;;;;;;;;;;;15.30;98.10;;;;;;5079485;28;20319;-79
2023/07/20 03:13:04;;;;;;;;;;;15.40;98.10;;;;;;5081878;28;20396;-80
2023/07/20 03:15:31;;;;;;;;;;;15.40;97.80;;;;;;5101949;28;20014;-78
2023/07/20 03:17:58;;;;;;;;;;;15.40;97.70;;;;;;5078517;28;19908;-80
2023/07/20 03:20:24;;;;;;;;;;;15.40;97.50;;;;;;5103944;28;19915;-79
2023/07/20 03:22:49;;;;;;;;;;;15.40;97.50;;;;;;5110490;28;19911;-80
2023/07/20 03:25:15;;;;;;;;;;;15.50;97.40;;;;;;5111655;28;20385;-79
2023/07/20 03:27:41;;;;;;;;;;;15.50;97.40;;;;;;5108755;28;19908;-80
2023/07/20 03:30:08;;;;;;;;;;;15.60;97.30;;;;;;5110210;28;20035;-79
2023/07/20 03:32:33;;;;;;;;;;;15.60;97.20;;;;;;5105229;28;20305;-78
2023/07/20 03:34:59;;;;;;;;;;;15.70;97.10;;;;;;5107284;28;19926;-78
2023/07/20 03:37:25;;;;;;;;;;;15.80;97.10;;;;;;5091399;28;19908;-78
2023/07/20 03:39:50;;;;;;;;;;;15.80;97.00;;;;;;5087761;28;19908;-78
2023/07/20 03:42:16;;;;;;;;;;;16.00;97.00;;;;;;5086692;28;19959;-80
2023/07/20 03:44:42;;;;;;;;;;;16.10;96.90;;;;;;5096893;28;19920;-78
2023/07/20 03:47:09;;;;;;;;;;;16.20;96.70;;;;;;5094011;28;19912;-79
2023/07/20 03:49:34;;;;;;;;;;;16.20;96.40;;;;;;5099589;28;20316;-79
2023/07/20 03:52:00;;;;;;;;;;;16.30;96.10;;;;;;5078690;28;19909;-79
2023/07/20 03:54:26;;;;;;;;;;;16.40;95.90;;;;;;5100148;28;19923;-80
2023/07/20 03:56:52;;;;;;;;;;;16.40;95.80;;;;;;5092805;28;20378;-78
2023/07/20 03:59:17;;;;;;;;;;;16.60;95.70;;;;;;5097714;28;19912;-79
2023/07/20 04:01:43;;;;;;;;;;;16.80;95.70;;;;;;5099989;28;19908;-80
2023/07/20 04:04:09;;;;;;;;;;;17.00;95.40;;;;;;5098556;28;19980;-79
2023/07/20 04:06:35;;;;;;;;;;;17.20;94.80;;;;;;5103297;28;19908;-79
2023/07/20 04:09:01;;;;;;;;;;;17.30;94.70;;;;;;5101565;28;19969;-79
2023/07/20 04:11:26;;;;;;;;;;;17.30;94.50;;;;;;5114638;28;20276;-78
2023/07/20 04:13:52;;;;;;;;;;;17.40;94.30;;;;;;5113824;28;19923;-78
2023/07/20 04:16:19;;;;;;;;;;;17.50;94.20;;;;;;5102575;28;19954;-80
2023/07/20 04:18:45;;;;;;;;;;;17.40;93.90;;;;;;5099618;28;19914;-79
2023/07/20 04:21:11;;;;;;;;;;;17.40;93.70;;;;;;5113438;28;19998;-78
2023/07/20 04:23:37;;;;;;;;;;;17.30;93.50;;;;;;5114227;28;19952;-82
2023/07/20 04:26:02;;;;;;;;;;;17.30;93.60;;;;;;5113611;28;19912;-78
2023/07/20 04:28:28;;;;;;;;;;;17.30;93.50;;;;;;5114391;28;20361;-78
2023/07/20 04:30:54;;;;;;;;;;;17.10;93.40;;;;;;5096895;28;20360;-79
2023/07/20 04:33:20;;;;;;;;;;;17.00;93.60;;;;;;5115663;28;20280;-78
2023/07/20 04:35:54;;;;;;;;;;;17.00;93.80;;;;;;5092472;28;20288;-79
2023/07/20 04:38:20;;;;;;;;;;;17.00;93.80;;;;;;5093167;28;19915;-79
2023/07/20 04:40:47;;;;;;;;;;;17.10;93.90;;;;;;5080938;28;20057;-80
2023/07/20 04:43:14;;;;;;;;;;;17.10;93.90;;;;;;5099320;28;19907;-78
2023/07/20 04:45:39;;;;;;;;;;;17.10;93.80;;;;;;5090123;28;20007;-79
2023/07/20 04:48:08;;;;;;;;;;;17.20;93.70;;;;;;5096544;28;19999;-80
2023/07/20 04:50:34;;;;;;;;;;;17.20;93.60;;;;;;5091103;28;19994;-81
2023/07/20 04:53:01;;;;;;;;;;;17.30;93.70;;;;;;5082200;28;19913;-80
2023/07/20 04:55:27;;;;;;;;;;;17.40;93.60;;;;;;5086901;28;20373;-81
2023/07/20 04:57:53;;;;;;;;;;;17.40;93.40;;;;;;5095115;28;20002;-79
2023/07/20 05:00:19;;;;;;;;;;;17.50;93.40;;;;;;5076558;28;20404;-79
2023/07/20 05:02:47;;;;;;;;;;;17.50;93.20;;;;;;5068678;28;19909;-80
2023/07/20 05:05:13;;;;;;;;;;;17.60;93.30;;;;;;5095912;28;19912;-79
2023/07/20 05:07:38;;;;;;;;;;;17.70;93.60;;;;;;5087903;28;19930;-80
2023/07/20 05:10:04;;;;;;;;;;;18.00;94.60;;;;;;5088715;28;19909;-80
2023/07/20 05:12:30;;;;;;;;;;;18.60;94.60;;;;;;5085306;28;19909;-79
2023/07/20 05:14:56;;;;;;;;;;;19.60;92.00;;;;;;5086390;28;19927;-79
2023/07/20 05:17:21;;;;;;;;;;;20.50;91.00;;;;;;5084486;28;19912;-80
2023/07/20 05:19:47;;;;;;;;;;;21.50;90.60;;;;;;5096008;28;19923;-81
2023/07/20 05:22:13;;;;;;;;;;;22.30;84.60;;;;;;5094538;28;19934;-82
2023/07/20 05:24:39;;;;;;;;;;;22.80;79.00;;;;;;5099375;28;20011;-80
2023/07/20 05:27:05;;;;;;;;;;;23.20;76.10;;;;;;5112122;28;19907;-80
2023/07/20 05:29:31;;;;;;;;;;;23.60;75.90;;;;;;5111120;28;20145;-80
2023/07/20 05:31:57;;;;;;;;;;;24.10;73.50;;;;;;5089869;28;20275;-79
2023/07/20 05:34:23;;;;;;;;;;;24.30;72.00;;;;;;5085908;28;19916;-80
2023/07/20 05:36:49;;;;;;;;;;;24.60;70.70;;;;;;5084243;28;19919;-79
2023/07/20 05:39:17;;;;;;;;;;;25.00;69.00;;;;;;5081880;28;19965;-82
2023/07/20 05:41:42;;;;;;;;;;;25.50;67.60;;;;;;5091202;28;19923;-79
2023/07/20 05:44:08;;;;;;;;;;;26.30;66.30;;;;;;5094641;28;19908;-80
2023/07/20 05:46:34;;;;;;;;;;;26.90;65.60;;;;;;5098909;28;20329;-79
2023/07/20 05:49:00;;;;;;;;;;;27.40;63.70;;;;;;5107438;28;20353;-83
2023/07/20 05:51:25;;;;;;;;;;;27.80;61.40;;;;;;5089091;28;19908;-80
2023/07/20 05:53:51;;;;;;;;;;;28.30;58.90;;;;;;5061472;28;20007;-81
2023/07/20 05:56:17;;;;;;;;;;;28.80;56.80;;;;;;5080138;28;20353;-80
2023/07/20 05:58:42;;;;;;;;;;;29.10;56.20;;;;;;5087138;28;19926;-82
2023/07/20 06:01:08;;;;;;;;;;;29.40;55.70;;;;;;5113743;28;19918;-82
2023/07/20 06:03:34;;;;;;;;;;;29.80;55.00;;;;;;5111595;28;19915;-81
2023/07/20 06:06:01;;;;;;;;;;;30.00;53.80;;;;;;5112665;28;19969;-82
2023/07/20 06:08:30;;;;;;;;;;;29.90;52.40;;;;;;5111114;28;19908;-83
2023/07/20 06:10:56;;;;;;;;;;;30.30;52.20;;;;;;5111866;28;19907;-81
2023/07/20 06:13:22;;;;;;;;;;;;;;;;;;5092561;28;19912;-81
2023/07/20 06:15:48;;;;;;;;;;;30.90;51.80;;;;;;5077511;28;19973;-81
2023/07/20 06:18:14;;;;;;;;;;;33.10;50.50;;;;;;5086027;28;19912;-82
2023/07/20 06:20:39;;;;;;;;;;;33.70;48.80;;;;;;5080808;28;20014;-82
2023/07/20 06:23:05;;;;;;;;;;;33.60;46.80;;;;;;5062130;28;19912;-80
2023/07/20 06:25:31;;;;;;;;;;;33.60;47.20;;;;;;5093719;28;19923;-81
2023/07/20 06:27:57;;;;;;;;;;;34.40;48.00;;;;;;5107422;28;19912;-82
2023/07/20 06:30:22;;;;;;;;;;;34.60;45.70;;;;;;5088629;28;20046;-83
2023/07/20 06:32:48;;;;;;;;;;;35.00;45.50;;;;;;5102479;28;19912;-81
2023/07/20 06:35:20;;;;;;;;;;;35.00;43.50;;;;;;5075170;28;20037;-82
2023/07/20 06:37:46;;;;;;;;;;;34.70;43.10;;;;;;5075685;28;19908;-80
2023/07/20 06:40:12;;;;;;;;;;;34.30;43.40;;;;;;5100913;28;19919;-83
2023/07/20 06:42:38;;;;;;;;;;;35.20;43.80;;;;;;5093633;28;20361;-82
2023/07/20 06:45:07;;;;;;;;;;;35.50;44.60;;;;;;5080028;28;19920;-82
2023/07/20 06:47:32;;;;;;;;;;;36.50;44.00;;;;;;5093120;28;19923;-81
2023/07/20 06:49:58;;;;;;;;;;;37.10;41.80;;;;;;5095220;28;19908;-83
2023/07/20 06:52:24;;;;;;;;;;;37.30;42.00;;;;;;5075841;28;19974;-81
2023/07/20 06:54:49;;;;;;;;;;;37.40;39.50;;;;;;5089952;28;19954;-80
2023/07/20 06:57:15;;;;;;;;;;;36.60;38.70;;;;;;5097700;28;19912;-82
2023/07/20 06:59:41;;;;;;;;;;;36.50;39.10;;;;;;5080962;28;19908;-80
2023/07/20 07:02:06;;;;;;;;;;;36.30;38.10;;;;;;5094877;28;19958;-81
2023/07/20 07:04:32;;;;;;;;;;;35.90;38.30;;;;;;5084995;28;20334;-81
2023/07/20 07:06:59;;;;;;;;;;;36.00;38.70;;;;;;5092884;28;19995;-84
2023/07/20 07:09:25;;;;;;;;;;;36.10;38.80;;;;;;5094573;28;19915;-81
2023/07/20 07:11:53;;;;;;;;;;;36.40;37.90;;;;;;5093976;28;19912;-80
2023/07/20 07:14:20;;;;;;;;;;;36.60;37.10;;;;;;5104613;28;19920;-80
2023/07/20 07:16:46;;;;;;;;;;;36.50;37.10;;;;;;5104925;28;19918;-80
2023/07/20 07:19:11;;;;;;;;;;;37.10;37.00;;;;;;5099122;28;20288;-81
2023/07/20 07:21:37;;;;;;;;;;;37.70;37.20;;;;;;5092678;28;19966;-82
2023/07/20 07:24:03;;;;;;;;;;;38.00;35.60;;;;;;5098524;28;19909;-81
2023/07/20 07:26:29;;;;;;;;;;;38.00;35.90;;;;;;5096724;28;19916;-82
2023/07/20 07:28:54;;;;;;;;;;;36.60;34.10;;;;;;5096597;28;19915;-81
2023/07/20 07:31:26;;;;;;;;;;;;;;;;;;5096754;28;20341;-81
2023/07/20 07:33:52;;;;;;;;;;;33.00;35.90;;;;;;5099835;28;19960;-80
2023/07/20 07:36:18;;;;;;;;;;;30.40;39.30;;;;;;5079088;28;20483;-81
2023/07/20 07:38:43;;;;;;;;;;;29.90;39.70;;;;;;5077276;28;20294;-81
2023/07/20 07:41:09;;;;;;;;;;;29.30;41.70;;;;;;5095838;28;19914;-80
2023/07/20 07:43:35;;;;;;;;;;;;;;;;;;5095896;28;19982;-81
2023/07/20 07:46:01;;;;;;;;;;;;;;;;;;5096510;28;20293;-81
2023/07/20 07:48:27;;;;;;;;;;;;;;;;;;5097553;28;19927;-80
2023/07/20 07:50:53;;;;;;;;;;;;;;;;;;5096345;28;20481;-81
2023/07/20 07:53:20;;;;;;;;;;;;;;;;;;5079171;28;19942;-81
2023/07/20 07:55:46;;;;;;;;;;;;;;;;;;5097846;28;19919;-81
2023/07/20 07:58:13;;;;;;;;;;;;;;;;;;5096822;28;19943;-83
2023/07/20 08:00:39;;;;;;;;;;;28.40;42.40;;;;;;5103393;28;19919;-80
2023/07/20 08:03:05;;;;;;;;;;;;;;;;;;5104291;28;19908;-81
2023/07/20 08:05:33;;;;;;;;;;;;;;;;;;5085942;28;19923;-81
2023/07/20 08:08:00;;;;;;;;;;;;;;;;;;5079372;28;20411;-81
2023/07/20 08:10:25;;;;;;;;;;;35.70;38.60;;;;;;5095930;28;19908;-81
2023/07/20 08:12:51;;;;;;;;;;;36.90;36.90;;;;;;5095804;28;19931;-81
2023/07/20 08:15:27;;;;;;;;;;;37.20;36.70;;;;;;5111419;28;19931;-81
2023/07/20 08:17:53;;;;;;;;;;;35.90;36.50;;;;;;5064384;28;20354;-81
2023/07/20 08:20:39;;;;;;;;;;;34.40;37.80;;;;;;5095628;28;19912;-81
2023/07/20 08:23:05;;;;;;;;;;;33.70;38.20;;;;;;5076898;28;19954;-82
2023/07/20 08:25:30;;;;;;;;;;;32.80;38.60;;;;;;5094302;28;19916;-81
2023/07/20 08:27:56;;;;;;;;;;;33.20;39.80;;;;;;5074849;28;20279;-81
2023/07/20 08:30:23;;;;;;;;;;;34.20;38.60;;;;;;5095187;28;19927;-82
2023/07/20 08:32:49;;;;;;;;;;;34.60;38.00;;;;;;5097092;28;19965;-82
2023/07/20 08:35:15;;;;;;;;;;;35.30;38.00;;;;;;5089316;28;20319;-82
2023/07/20 08:37:41;;;;;;;;;;;35.40;37.10;;;;;;5079636;28;19908;-82
2023/07/20 08:40:09;;;;;;;;;;;34.60;37.50;;;;;;5096901;28;19918;-79
2023/07/20 08:42:38;;;;;;;;;;;33.90;38.00;;;;;;5088082;28;20254;-82
2023/07/20 08:45:08;;;;;;;;;;;33.40;38.60;;;;;;5095229;28;19923;-79
2023/07/20 08:47:33;;;;;;;;;;;32.90;38.90;;;;;;5094801;28;19955;-81
2023/07/20 08:50:01;;;;;;;;;;;33.40;39.40;;;;;;5095642;28;19912;-81
2023/07/20 08:52:27;;;;;;;;;;;34.50;39.30;;;;;;5095735;28;19961;-81
2023/07/20 08:54:53;;;;;;;;;;;35.30;38.20;;;;;;5095453;28;19912;-80
2023/07/20 08:57:21;;;;;;;;;;;34.30;37.30;;;;;;5094047;28;19916;-82
2023/07/20 08:59:47;;;;;;;;;;;32.80;38.60;;;;;;5094757;28;20305;-80
2023/07/20 09:02:16;;;;;;;;;;;33.10;40.10;;;;;;5094751;28;19919;-83
2023/07/20 09:04:43;;;;;;;;;;;33.90;39.30;;;;;;5095601;28;19977;-83
2023/07/20 09:07:09;;;;;;;;;;;34.40;38.90;;;;;;5090584;28;19908;-81
2023/07/20 09:09:39;;;;;;;;;;;35.40;38.80;;;;;;5086885;28;19908;-82
2023/07/20 09:12:05;;;;;;;;;;;36.40;37.40;;;;;;5096959;28;20376;-81
2023/07/20 09:14:31;;;;;;;;;;;36.70;36.80;;;;;;5093532;28;19920;-81
2023/07/20 09:16:57;;;;;;;;;;;36.90;36.80;;;;;;5064717;28;19912;-81
2023/07/20 09:19:23;;;;;;;;;;;36.90;36.40;;;;;;5073085;28;19919;-82
2023/07/20 09:21:49;;;;;;;;;;;36.70;36.20;;;;;;5066919;28;19913;-81
2023/07/20 09:24:16;;;;;;;;;;;36.40;35.90;;;;;;5103961;28;20284;-81
2023/07/20 09:26:43;;;;;;;;;;;34.60;36.30;;;;;;5095365;28;19908;-82
2023/07/20 09:29:12;;;;;;;;;;;32.70;37.50;;;;;;5075959;28;20078;-82
2023/07/20 09:31:41;;;;;;;;;;;32.20;39.50;;;;;;5080975;28;20432;-82
2023/07/20 09:34:07;;;;;;;;;;;32.70;39.30;;;;;;5096039;28;20276;-83
2023/07/20 09:36:33;;;;;;;;;;;33.60;38.20;;;;;;5096683;28;19913;-81
2023/07/20 09:38:59;;;;;;;;;;;33.90;38.60;;;;;;5110777;28;19923;-83
2023/07/20 09:41:26;;;;;;;;;;;33.70;37.90;;;;;;5099584;28;19908;-83
2023/07/20 09:43:52;;;;;;;;;;;33.60;39.00;;;;;;5096764;28;19973;-84
2023/07/20 09:46:20;;;;;;;;;;;34.20;38.70;;;;;;5094020;28;19916;-81
2023/07/20 09:48:54;;;;;;;;;;;31.30;38.30;;;;;;5099231;28;19949;-81
2023/07/20 09:51:21;;;;;;;;;;;;;;;;;;5097581;28;19991;-80
2023/07/20 09:53:47;;;;;;;;;;;;;;;;;;5097896;28;19908;-81
2023/07/20 09:56:13;;;;;;;;;;;;;;;;;;5077513;28;19912;-81
2023/07/20 09:58:39;;;;;;;;;;;30.70;39.60;;;;;;5076860;28;19994;-83
2023/07/20 10:01:06;;;;;;;;;;;26.20;46.50;;;;;;5095042;28;20002;-82
2023/07/20 10:03:34;;;;;;;;;;;25.00;48.30;;;;;;5094893;28;19916;-81
2023/07/20 10:06:05;;;;;;;;;;;24.10;50.50;;;;;;5096281;28;19927;-83
2023/07/20 10:08:31;;;;;;;;;;;22.80;55.00;;;;;;5095159;28;19908;-82
2023/07/20 10:11:00;;;;;;;;;;;21.80;60.80;;;;;;5102627;28;19934;-83
2023/07/20 10:13:27;;;;;;;;;;;20.20;65.20;;;;;;5100337;28;20007;-81
2023/07/20 10:16:03;;;;;;;;;;;18.90;72.50;;;;;;5096619;28;19920;-82
2023/07/20 10:18:41;;;;;;;;;;;18.10;77.80;;;;;;5080472;28;19921;-82
2023/07/20 10:21:08;;;;;;;;;;;18.20;85.60;;;;;;5098652;28;20064;-81
2023/07/20 10:23:34;;;;;;;;;;;19.10;90.60;;;;;;5098903;28;19919;-81
2023/07/20 10:26:01;;;;;;;;;;;21.20;91.90;;;;;;5098688;28;19991;-83
2023/07/20 10:28:27;;;;;;;;;;;22.90;86.90;;;;;;5095193;28;19908;-81
2023/07/20 10:30:53;;;;;;;;;;;23.10;81.00;;;;;;5077896;28;20345;-82
2023/07/20 10:33:20;;;;;;;;;;;22.70;80.70;;;;;;5096388;28;19958;-83
2023/07/20 10:35:52;;;;;;;;;;;22.30;80.20;;;;;;5079380;28;19912;-83
2023/07/20 10:38:18;;;;;;;;;;;21.70;82.00;;;;;;5079608;28;19984;-81
2023/07/20 10:40:53;;;;;;;;;;;21.30;83.00;;;;;;5097339;28;20358;-83
2023/07/20 10:43:19;;;;;;;;;;;20.90;84.10;;;;;;5075985;28;19912;-82
2023/07/20 10:45:49;;;;;;;;;;;20.70;84.40;;;;;;5093115;28;20385;-82
2023/07/20 10:48:16;;;;;;;;;;;20.60;83.30;;;;;;5110409;28;19947;-83
2023/07/20 10:50:42;;;;;;;;;;;20.30;84.50;;;;;;5096235;28;19908;-83
2023/07/20 10:53:15;;;;;;;;;;;20.10;86.00;;;;;;5096855;28;20105;-81
2023/07/20 10:55:42;;;;;;;;;;;20.10;86.30;;;;;;5094518;28;19912;-82
2023/07/20 10:58:08;;;;;;;;;;;20.20;86.40;;;;;;5093068;28;20011;-82
2023/07/20 11:00:34;;;;;;;;;;;20.40;85.00;;;;;;5078960;28;19908;-82
2023/07/20 11:03:00;;;;;;;;;;;20.70;84.30;;;;;;5097234;28;19908;-79
2023/07/20 11:05:35;;;;;;;;;;;21.00;83.60;;;;;;5078366;28;19951;-82
2023/07/20 11:08:03;;;;;;;;;;;21.10;82.80;;;;;;5090754;28;19908;-81
2023/07/20 11:10:29;;;;;;;;;;;21.20;82.30;;;;;;5095747;28;19923;-81
2023/07/20 11:13:13;;;;;;;;;;;21.00;81.40;;;;;;5085646;28;19908;-81
2023/07/20 11:15:44;;;;;;;;;;;20.80;81.80;;;;;;5111354;28;19931;-82
2023/07/20 11:18:13;;;;;;;;;;;20.40;82.00;;;;;;5066126;28;19970;-82
2023/07/20 11:20:40;;;;;;;;;;;19.70;84.20;;;;;;5112963;28;19926;-83
2023/07/20 11:23:06;;;;;;;;;;;18.50;89.00;;;;;;5112810;28;20288;-82
2023/07/20 11:25:39;;;;;;;;;;;17.60;91.30;;;;;;5097320;28;19916;-81
2023/07/20 11:28:10;;;;;;;;;;;17.20;93.20;;;;;;5101501;28;19915;-83
2023/07/20 11:30:37;;;;;;;;;;;17.00;94.10;;;;;;5087628;28;20429;-83
2023/07/20 11:33:02;;;;;;;;;;;17.10;95.10;;;;;;5091497;28;19912;-84
2023/07/20 11:35:28;;;;;;;;;;;17.20;95.30;;;;;;5081734;28;20449;-83
2023/07/20 11:37:54;;;;;;;;;;;17.40;95.70;;;;;;5080760;28;19912;-81
2023/07/20 11:40:20;;;;;;;;;;;17.80;96.50;;;;;;5109200;28;19908;-82
2023/07/20 11:42:46;;;;;;;;;;;18.30;96.90;;;;;;5090806;28;19915;-83
2023/07/20 11:45:12;;;;;;;;;;;18.60;97.10;;;;;;5089811;28;19922;-81
2023/07/20 11:47:41;;;;;;;;;;;18.90;98.00;;;;;;5098238;28;19916;-83
2023/07/20 11:50:08;;;;;;;;;;;19.10;98.10;;;;;;5096617;28;19909;-81
2023/07/20 11:52:34;;;;;;;;;;;19.20;98.50;;;;;;5101770;28;19947;-83
2023/07/20 11:54:59;;;;;;;;;;;19.10;98.80;;;;;;5087104;28;19915;-81
2023/07/20 11:57:25;;;;;;;;;;;18.80;98.50;;;;;;5083294;28;19915;-83
2023/07/20 11:59:57;;;;;;;;;;;18.80;99.40;;;;;;5102430;28;19908;-80
2023/07/20 12:02:24;;;;;;;;;;;19.00;99.40;;;;;;5083764;28;19916;-81
2023/07/20 12:04:50;;;;;;;;;;;19.10;99.10;;;;;;5082588;28;19946;-83
2023/07/20 12:07:16;;;;;;;;;;;19.00;98.70;;;;;;5078681;28;19950;-82
2023/07/20 12:09:42;;;;;;;;;;;19.00;98.70;;;;;;5078027;28;19919;-82
2023/07/20 12:12:14;;;;;;;;;;;19.00;97.00;;;;;;5096420;28;19912;-81
2023/07/20 12:14:39;;;;;;;;;;;19.20;96.50;;;;;;5074549;28;20298;-82
2023/07/20 12:17:08;;;;;;;;;;;19.50;95.70;;;;;;5072766;28;19912;-82
2023/07/20 12:19:37;;;;;;;;;;;19.50;94.30;;;;;;5076487;28;20000;-81
2023/07/20 12:22:03;;;;;;;;;;;19.70;93.40;;;;;;5086243;28;19912;-81
2023/07/20 12:24:29;;;;;;;;;;;19.90;92.60;;;;;;5078840;28;19919;-83
2023/07/20 12:26:58;;;;;;;;;;;20.00;92.10;;;;;;5075834;28;20003;-81
2023/07/20 12:29:26;;;;;;;;;;;20.10;91.00;;;;;;5073887;28;19913;-81
2023/07/20 12:31:52;;;;;;;;;;;19.90;90.50;;;;;;5074954;28;19909;-80
2023/07/20 12:34:18;;;;;;;;;;;20.00;90.80;;;;;;5070265;28;19929;-82
2023/07/20 12:36:44;;;;;;;;;;;20.00;90.40;;;;;;5061878;28;19943;-82
2023/07/20 12:39:10;;;;;;;;;;;20.00;90.20;;;;;;5075652;28;19979;-82
2023/07/20 12:41:35;;;;;;;;;;;20.10;90.30;;;;;;5074454;28;19909;-81
2023/07/20 12:44:08;;;;;;;;;;;20.10;90.10;;;;;;5075936;28;19908;-81
2023/07/20 12:46:37;;;;;;;;;;;20.00;89.10;;;;;;5074888;28;19916;-81
2023/07/20 12:49:03;;;;;;;;;;;20.40;88.50;;;;;;5074095;28;19936;-82
2023/07/20 12:51:31;;;;;;;;;;;20.60;87.20;;;;;;5074530;28;19912;-82
2023/07/20 12:53:57;;;;;;;;;;;20.60;86.40;;;;;;5074703;28;20378;-83
2023/07/20 12:56:23;;;;;;;;;;;20.50;86.10;;;;;;5075669;28;19939;-82
2023/07/20 12:58:49;;;;;;;;;;;20.60;86.10;;;;;;5089049;28;19913;-82
2023/07/20 13:01:15;;;;;;;;;;;20.60;85.50;;;;;;5075797;28;19961;-82
2023/07/20 13:03:41;;;;;;;;;;;20.60;84.60;;;;;;5074460;28;19912;-83
2023/07/20 13:06:07;;;;;;;;;;;20.60;83.30;;;;;;5080719;28;19920;-82
2023/07/20 13:08:33;;;;;;;;;;;20.50;83.10;;;;;;5080222;28;19919;-82
2023/07/20 13:11:00;;;;;;;;;;;20.50;83.30;;;;;;5065895;28;19987;-80
2023/07/20 13:13:26;;;;;;;;;;;20.50;83.40;;;;;;5069715;28;20285;-82
2023/07/20 13:15:51;;;;;;;;;;;20.70;83.60;;;;;;5092187;28;19916;-81
2023/07/20 13:18:18;;;;;;;;;;;20.70;82.90;;;;;;5056206;28;19909;-81
2023/07/20 13:20:44;;;;;;;;;;;20.50;83.10;;;;;;5088963;28;20026;-82
2023/07/20 13:23:10;;;;;;;;;;;20.50;83.30;;;;;;5075203;28;19916;-80
2023/07/20 13:25:36;;;;;;;;;;;20.70;83.10;;;;;;5097317;28;19966;-81
2023/07/20 13:28:02;;;;;;;;;;;21.00;83.10;;;;;;5081215;28;19912;-80
2023/07/20 13:30:28;;;;;;;;;;;21.00;81.60;;;;;;5095167;28;20386;-81
2023/07/20 13:32:53;;;;;;;;;;;20.90;81.10;;;;;;5094770;28;19999;-83
2023/07/20 13:35:19;;;;;;;;;;;20.90;81.10;;;;;;5095915;28;19930;-78
2023/07/20 13:37:45;;;;;;;;;;;21.00;81.50;;;;;;5077606;28;19962;-81
2023/07/20 13:40:13;;;;;;;;;;;21.20;81.20;;;;;;5096374;28;20373;-80
2023/07/20 13:42:40;;;;;;;;;;;21.30;80.80;;;;;;5110790;28;19915;-82
2023/07/20 13:45:06;;;;;;;;;;;21.20;80.60;;;;;;5077777;28;19940;-82
2023/07/20 13:47:32;;;;;;;;;;;21.10;80.90;;;;;;5076282;28;20001;-81
2023/07/20 13:49:57;;;;;;;;;;;21.00;81.00;;;;;;5094616;28;19912;-81
2023/07/20 13:52:23;;;;;;;;;;;20.80;80.60;;;;;;5075547;28;19908;-81
2023/07/20 13:54:49;;;;;;;;;;;20.80;80.80;;;;;;5093515;28;19970;-81
2023/07/20 13:57:15;;;;;;;;;;;20.90;80.30;;;;;;5092134;28;20007;-81
2023/07/20 13:59:41;;;;;;;;;;;20.90;79.90;;;;;;5075787;28;19931;-81
2023/07/20 14:02:07;;;;;;;;;;;20.80;79.50;;;;;;5093725;28;19910;-82
2023/07/20 14:04:33;;;;;;;;;;;20.70;79.30;;;;;;5075769;28;19912;-82
2023/07/20 14:06:58;;;;;;;;;;;20.60;79.60;;;;;;5107864;28;19919;-81
2023/07/20 14:09:24;;;;;;;;;;;20.60;79.60;;;;;;5093994;28;19974;-80
2023/07/20 14:11:50;;;;;;;;;;;20.60;79.70;;;;;;5093526;28;20016;-80
2023/07/20 14:14:15;;;;;;;;;;;20.60;79.30;;;;;;5074127;28;19924;-81
2023/07/20 14:16:41;;;;;;;;;;;20.60;79.30;;;;;;5083897;28;19915;-81
2023/07/20 14:19:07;;;;;;;;;;;21.60;79.00;;;;;;5069757;28;19912;-82